Overland Park, KS (66251)

7:19 PM CDT on August 30, 2014 (GMT -0500)
Milburn | Change Station
CLOSE
Current Station
Personal Weather Station
Location: Overland Park, KS
Elevation: 996 ft
Nearby Weather Stations

Elev 996 ft 39.01 °N, 94.68 °W | Updated 2 minutes ago

Clear
Clear
83.3 °F
Feels Like 83 °F
N
0.0
Wind Variable Wind from North
Gusts 1.6 mph

Today
High -- | Low -- °F
--% Chance of Precip.
Yesterday
High -- | Low -- °F
Precip. -- in
6:45 AM 7:52 PM
Waxing Crescent, 26% visible
Pressure 29.85 in
Visibility 10.0 miles
Clouds Clear
Heat Index 83 °F
Dew Point 56 °F
Humidity 40%
Rainfall 0.00 in
Snow Depth Not available.
UV 1 out of 12
Pollen 9.70 out of 12
Air Quality Not available.
Flu Activity Not available.
METAR KMKC 302354Z 00000KT 10SM CLR 31/17 A2987 RMK AO2 SLP108 T03060172 10317 20289 55003

More Conditions Fewer Conditions

Pressure 29.85 in
Visibility 10.0 miles
Clouds Clear
Heat Index 83 °F
Dew Point 56 °F
Humidity 40%
Rainfall 0.00 in
Snow Depth Not available.
UV 1 out of 12
Pollen 9.70 out of 12
Air Quality Not available.
Flu Activity Not available.
METAR KMKC 302354Z 00000KT 10SM CLR 31/17 A2987 RMK AO2 SLP108 T03060172 10317 20289 55003

More Conditions Fewer Conditions

10-Day Weather Forecast

Almanac

Astronomy

Aug. 30, 2014 Rise Set
Actual Time 6:45 AM CDT 7:52 PM CDT
Civil Twilight 6:18 AM CDT 8:19 PM CDT
Nautical Twilight 5:45 AM CDT 8:52 PM CDT
Astronomical Twilight 5:11 AM CDT 9:26 PM CDT
Moon 11:31 AM CDT (8/30) 10:29 PM CDT (8/30)
Length of Visible Light 14h 01m
Length of Day
13h 06m
Tomorrow will be 2m 25s shorter.
Waxing Crescent, 26% of the Moon is Illuminated
Today
Waxing Crescent
Sep 2
First Quarter
Sep 8
Full
Sep 15
Last Quarter
Sep 24
New

Today's Extremes

State Highs State Lows

Community

WunderPhotos

Upload Photos

1,748,696 photos uploaded!

Nearby

Snow Depth

Station Depth Elevation
No new snow has been reported.

Earthquake Activity

City Distance Mag. Time & Date
No recent earthquake activity has been reported nearby.
Minimum magnitude displayed is 2.5.

Coastal Water Temperatures

Place Temperature
No Stations Reporting

Nearby Weather Stations